sensor_id;sensor_type;location;lat;lon;timestamp;P1;durP1;ratioP1;P2;durP2;ratioP2
75680;SDS011;64294;49.176;16.626;2023-01-16T00:00:23;54.35;;;25.70;;
75680;SDS011;64294;49.176;16.626;2023-01-16T00:02:49;48.70;;;25.98;;
75680;SDS011;64294;49.176;16.626;2023-01-16T00:05:14;49.80;;;25.10;;
75680;SDS011;64294;49.176;16.626;2023-01-16T00:07:39;51.80;;;25.88;;
75680;SDS011;64294;49.176;16.626;2023-01-16T00:10:05;36.35;;;18.33;;
75680;SDS011;64294;49.176;16.626;2023-01-16T00:12:31;41.50;;;20.60;;
75680;SDS011;64294;49.176;16.626;2023-01-16T00:14:56;43.67;;;23.98;;
75680;SDS011;64294;49.176;16.626;2023-01-16T00:17:21;36.50;;;20.00;;
75680;SDS011;64294;49.176;16.626;2023-01-16T00:19:47;38.33;;;20.67;;
75680;SDS011;64294;49.176;16.626;2023-01-16T00:22:13;34.70;;;18.98;;
75680;SDS011;64294;49.176;16.626;2023-01-16T00:24:38;43.00;;;20.25;;
75680;SDS011;64294;49.176;16.626;2023-01-16T00:27:03;38.33;;;19.58;;
75680;SDS011;64294;49.176;16.626;2023-01-16T00:29:29;40.95;;;19.48;;
75680;SDS011;64294;49.176;16.626;2023-01-16T00:31:56;40.50;;;19.17;;
75680;SDS011;64294;49.176;16.626;2023-01-16T00:34:21;38.58;;;18.40;;
75680;SDS011;64294;49.176;16.626;2023-01-16T00:36:46;37.53;;;18.95;;
75680;SDS011;64294;49.176;16.626;2023-01-16T00:39:12;39.00;;;20.10;;
75680;SDS011;64294;49.176;16.626;2023-01-16T00:41:37;35.08;;;17.02;;
75680;SDS011;64294;49.176;16.626;2023-01-16T00:44:03;31.27;;;16.63;;
75680;SDS011;64294;49.176;16.626;2023-01-16T00:46:28;33.80;;;17.30;;
75680;SDS011;64294;49.176;16.626;2023-01-16T00:48:54;34.63;;;17.92;;
75680;SDS011;64294;49.176;16.626;2023-01-16T00:51:21;39.50;;;19.05;;
75680;SDS011;64294;49.176;16.626;2023-01-16T00:53:47;35.30;;;18.20;;
75680;SDS011;64294;49.176;16.626;2023-01-16T00:56:12;37.63;;;17.95;;
75680;SDS011;64294;49.176;16.626;2023-01-16T00:58:38;33.78;;;16.98;;
75680;SDS011;64294;49.176;16.626;2023-01-16T01:01:04;36.30;;;17.30;;
75680;SDS011;64294;49.176;16.626;2023-01-16T01:03:31;31.30;;;17.27;;
75680;SDS011;64294;49.176;16.626;2023-01-16T01:05:57;38.03;;;17.73;;
75680;SDS011;64294;49.176;16.626;2023-01-16T01:08:23;32.22;;;16.40;;
75680;SDS011;64294;49.176;16.626;2023-01-16T01:10:48;33.50;;;15.40;;
75680;SDS011;64294;49.176;16.626;2023-01-16T01:13:14;29.13;;;15.15;;
75680;SDS011;64294;49.176;16.626;2023-01-16T01:15:40;31.38;;;15.45;;
75680;SDS011;64294;49.176;16.626;2023-01-16T01:18:05;35.08;;;15.60;;
75680;SDS011;64294;49.176;16.626;2023-01-16T01:20:35;32.35;;;16.00;;
75680;SDS011;64294;49.176;16.626;2023-01-16T01:23:00;30.35;;;15.88;;
75680;SDS011;64294;49.176;16.626;2023-01-16T01:25:25;33.30;;;16.25;;
75680;SDS011;64294;49.176;16.626;2023-01-16T01:27:51;32.08;;;15.90;;
75680;SDS011;64294;49.176;16.626;2023-01-16T01:30:16;32.30;;;16.42;;
75680;SDS011;64294;49.176;16.626;2023-01-16T01:32:42;30.63;;;16.33;;
75680;SDS011;64294;49.176;16.626;2023-01-16T01:35:08;32.38;;;16.17;;
75680;SDS011;64294;49.176;16.626;2023-01-16T01:37:35;32.65;;;15.68;;
75680;SDS011;64294;49.176;16.626;2023-01-16T01:40:01;32.58;;;14.77;;
75680;SDS011;64294;49.176;16.626;2023-01-16T01:42:29;25.88;;;13.40;;
75680;SDS011;64294;49.176;16.626;2023-01-16T01:47:39;21.95;;;10.65;;
75680;SDS011;64294;49.176;16.626;2023-01-16T01:50:13;27.42;;;12.95;;
75680;SDS011;64294;49.176;16.626;2023-01-16T01:53:08;48.00;;;22.13;;
75680;SDS011;64294;49.176;16.626;2023-01-16T01:55:38;34.72;;;16.50;;
75680;SDS011;64294;49.176;16.626;2023-01-16T01:58:06;29.20;;;14.13;;
75680;SDS011;64294;49.176;16.626;2023-01-16T02:00:32;28.48;;;13.93;;
75680;SDS011;64294;49.176;16.626;2023-01-16T02:05:39;25.95;;;13.43;;
75680;SDS011;64294;49.176;16.626;2023-01-16T02:08:13;27.13;;;14.40;;
75680;SDS011;64294;49.176;16.626;2023-01-16T02:10:43;26.27;;;14.25;;
75680;SDS011;64294;49.176;16.626;2023-01-16T02:13:12;30.63;;;14.85;;
75680;SDS011;64294;49.176;16.626;2023-01-16T02:15:39;32.65;;;15.23;;
75680;SDS011;64294;49.176;16.626;2023-01-16T02:18:29;31.85;;;15.52;;
75680;SDS011;64294;49.176;16.626;2023-01-16T02:26:39;31.83;;;14.32;;
75680;SDS011;64294;49.176;16.626;2023-01-16T02:40:24;27.00;;;14.48;;
75680;SDS011;64294;49.176;16.626;2023-01-16T02:48:12;25.23;;;13.15;;
75680;SDS011;64294;49.176;16.626;2023-01-16T02:50:57;28.70;;;13.02;;
75680;SDS011;64294;49.176;16.626;2023-01-16T02:53:33;22.63;;;11.85;;
75680;SDS011;64294;49.176;16.626;2023-01-16T02:56:07;20.23;;;11.05;;
75680;SDS011;64294;49.176;16.626;2023-01-16T02:58:45;17.50;;;10.18;;
75680;SDS011;64294;49.176;16.626;2023-01-16T03:01:12;21.30;;;11.27;;
75680;SDS011;64294;49.176;16.626;2023-01-16T03:03:47;23.70;;;12.35;;
75680;SDS011;64294;49.176;16.626;2023-01-16T03:11:53;26.67;;;13.25;;
75680;SDS011;64294;49.176;16.626;2023-01-16T03:17:26;22.45;;;11.70;;
75680;SDS011;64294;49.176;16.626;2023-01-16T03:22:52;23.50;;;11.75;;
75680;SDS011;64294;49.176;16.626;2023-01-16T03:33:18;20.48;;;11.63;;
75680;SDS011;64294;49.176;16.626;2023-01-16T03:35:54;21.83;;;11.40;;
75680;SDS011;64294;49.176;16.626;2023-01-16T03:38:24;20.65;;;11.93;;
75680;SDS011;64294;49.176;16.626;2023-01-16T03:40:56;24.17;;;13.18;;
75680;SDS011;64294;49.176;16.626;2023-01-16T03:43:27;24.50;;;12.57;;
75680;SDS011;64294;49.176;16.626;2023-01-16T03:51:14;25.15;;;13.20;;
75680;SDS011;64294;49.176;16.626;2023-01-16T03:54:04;29.45;;;13.80;;
75680;SDS011;64294;49.176;16.626;2023-01-16T03:59:49;26.45;;;13.57;;
75680;SDS011;64294;49.176;16.626;2023-01-16T04:05:03;26.45;;;13.45;;
75680;SDS011;64294;49.176;16.626;2023-01-16T04:07:42;26.40;;;13.10;;
75680;SDS011;64294;49.176;16.626;2023-01-16T04:10:17;23.48;;;12.80;;
75680;SDS011;64294;49.176;16.626;2023-01-16T04:12:54;21.98;;;11.88;;
75680;SDS011;64294;49.176;16.626;2023-01-16T04:15:23;23.42;;;11.27;;
75680;SDS011;64294;49.176;16.626;2023-01-16T04:17:50;22.00;;;12.10;;
75680;SDS011;64294;49.176;16.626;2023-01-16T04:20:19;20.23;;;9.85;;
75680;SDS011;64294;49.176;16.626;2023-01-16T04:22:48;19.25;;;10.05;;
75680;SDS011;64294;49.176;16.626;2023-01-16T04:25:15;21.80;;;11.23;;
75680;SDS011;64294;49.176;16.626;2023-01-16T04:27:42;22.00;;;11.88;;
75680;SDS011;64294;49.176;16.626;2023-01-16T04:30:07;20.65;;;10.48;;
75680;SDS011;64294;49.176;16.626;2023-01-16T04:32:33;21.92;;;11.05;;
75680;SDS011;64294;49.176;16.626;2023-01-16T04:35:00;21.30;;;10.73;;
75680;SDS011;64294;49.176;16.626;2023-01-16T04:37:28;18.65;;;10.15;;
75680;SDS011;64294;49.176;16.626;2023-01-16T04:39:53;20.58;;;10.73;;
75680;SDS011;64294;49.176;16.626;2023-01-16T04:42:18;20.52;;;10.55;;
75680;SDS011;64294;49.176;16.626;2023-01-16T04:44:44;18.80;;;10.70;;
75680;SDS011;64294;49.176;16.626;2023-01-16T04:47:09;17.90;;;9.52;;
75680;SDS011;64294;49.176;16.626;2023-01-16T04:49:38;16.55;;;9.18;;
75680;SDS011;64294;49.176;16.626;2023-01-16T04:52:04;13.93;;;7.70;;
75680;SDS011;64294;49.176;16.626;2023-01-16T04:54:29;17.92;;;9.02;;
75680;SDS011;64294;49.176;16.626;2023-01-16T04:56:55;24.83;;;10.38;;
75680;SDS011;64294;49.176;16.626;2023-01-16T04:59:21;23.42;;;9.75;;
75680;SDS011;64294;49.176;16.626;2023-01-16T05:01:47;18.13;;;10.20;;
75680;SDS011;64294;49.176;16.626;2023-01-16T05:04:13;15.95;;;8.20;;
75680;SDS011;64294;49.176;16.626;2023-01-16T05:06:40;15.52;;;7.78;;
75680;SDS011;64294;49.176;16.626;2023-01-16T05:09:06;17.50;;;7.97;;
75680;SDS011;64294;49.176;16.626;2023-01-16T05:11:33;14.77;;;8.02;;
75680;SDS011;64294;49.176;16.626;2023-01-16T05:14:02;12.70;;;7.80;;
75680;SDS011;64294;49.176;16.626;2023-01-16T05:16:27;14.18;;;6.75;;
75680;SDS011;64294;49.176;16.626;2023-01-16T05:18:53;14.32;;;7.40;;
75680;SDS011;64294;49.176;16.626;2023-01-16T05:21:21;13.07;;;6.90;;
75680;SDS011;64294;49.176;16.626;2023-01-16T05:23:46;11.88;;;6.15;;
75680;SDS011;64294;49.176;16.626;2023-01-16T05:26:12;11.23;;;6.55;;
75680;SDS011;64294;49.176;16.626;2023-01-16T05:28:37;13.00;;;6.75;;
75680;SDS011;64294;49.176;16.626;2023-01-16T05:31:03;10.45;;;5.68;;
75680;SDS011;64294;49.176;16.626;2023-01-16T05:33:28;11.40;;;6.03;;
75680;SDS011;64294;49.176;16.626;2023-01-16T05:35:54;10.07;;;5.85;;
75680;SDS011;64294;49.176;16.626;2023-01-16T05:38:20;10.55;;;5.70;;
75680;SDS011;64294;49.176;16.626;2023-01-16T05:40:45;10.00;;;5.57;;
75680;SDS011;64294;49.176;16.626;2023-01-16T05:43:13;9.68;;;5.90;;
75680;SDS011;64294;49.176;16.626;2023-01-16T05:45:44;9.68;;;6.10;;
75680;SDS011;64294;49.176;16.626;2023-01-16T05:48:10;10.65;;;5.65;;
75680;SDS011;64294;49.176;16.626;2023-01-16T05:50:35;8.93;;;5.28;;
75680;SDS011;64294;49.176;16.626;2023-01-16T05:53:01;9.52;;;5.22;;
75680;SDS011;64294;49.176;16.626;2023-01-16T05:55:26;9.13;;;5.03;;
75680;SDS011;64294;49.176;16.626;2023-01-16T05:57:53;10.60;;;5.65;;
75680;SDS011;64294;49.176;16.626;2023-01-16T06:00:19;10.65;;;5.35;;
75680;SDS011;64294;49.176;16.626;2023-01-16T06:02:44;11.32;;;5.93;;
75680;SDS011;64294;49.176;16.626;2023-01-16T06:05:13;9.52;;;5.28;;
75680;SDS011;64294;49.176;16.626;2023-01-16T06:07:39;8.70;;;4.97;;
75680;SDS011;64294;49.176;16.626;2023-01-16T06:10:07;11.27;;;5.03;;
75680;SDS011;64294;49.176;16.626;2023-01-16T06:12:33;8.30;;;4.53;;
75680;SDS011;64294;49.176;16.626;2023-01-16T06:14:58;10.25;;;5.38;;
75680;SDS011;64294;49.176;16.626;2023-01-16T06:17:26;9.15;;;5.40;;
75680;SDS011;64294;49.176;16.626;2023-01-16T06:19:51;8.70;;;5.28;;
75680;SDS011;64294;49.176;16.626;2023-01-16T06:22:17;9.27;;;4.68;;
75680;SDS011;64294;49.176;16.626;2023-01-16T06:24:42;9.55;;;5.18;;
75680;SDS011;64294;49.176;16.626;2023-01-16T06:27:08;13.23;;;6.88;;
75680;SDS011;64294;49.176;16.626;2023-01-16T06:29:33;16.70;;;7.90;;
75680;SDS011;64294;49.176;16.626;2023-01-16T06:31:59;14.65;;;6.28;;
75680;SDS011;64294;49.176;16.626;2023-01-16T06:34:27;9.88;;;5.50;;
75680;SDS011;64294;49.176;16.626;2023-01-16T06:36:52;11.85;;;5.65;;
75680;SDS011;64294;49.176;16.626;2023-01-16T06:39:18;11.23;;;5.50;;
75680;SDS011;64294;49.176;16.626;2023-01-16T06:41:43;10.85;;;5.68;;
75680;SDS011;64294;49.176;16.626;2023-01-16T06:44:09;12.25;;;5.63;;
75680;SDS011;64294;49.176;16.626;2023-01-16T06:46:34;9.38;;;5.18;;
75680;SDS011;64294;49.176;16.626;2023-01-16T06:49:00;9.25;;;5.60;;
75680;SDS011;64294;49.176;16.626;2023-01-16T06:51:28;10.82;;;5.70;;
75680;SDS011;64294;49.176;16.626;2023-01-16T06:53:56;11.73;;;6.07;;
75680;SDS011;64294;49.176;16.626;2023-01-16T06:56:21;11.07;;;6.18;;
75680;SDS011;64294;49.176;16.626;2023-01-16T06:58:47;11.35;;;5.75;;
75680;SDS011;64294;49.176;16.626;2023-01-16T07:01:12;10.88;;;6.13;;
75680;SDS011;64294;49.176;16.626;2023-01-16T07:03:39;10.82;;;5.82;;
75680;SDS011;64294;49.176;16.626;2023-01-16T07:06:10;14.77;;;6.60;;
75680;SDS011;64294;49.176;16.626;2023-01-16T07:08:37;21.48;;;10.02;;
75680;SDS011;64294;49.176;16.626;2023-01-16T07:11:03;17.52;;;8.98;;
75680;SDS011;64294;49.176;16.626;2023-01-16T07:13:28;15.98;;;8.52;;
75680;SDS011;64294;49.176;16.626;2023-01-16T07:15:54;19.67;;;11.00;;
75680;SDS011;64294;49.176;16.626;2023-01-16T07:18:39;19.88;;;11.43;;
75680;SDS011;64294;49.176;16.626;2023-01-16T07:21:24;19.55;;;9.02;;
75680;SDS011;64294;49.176;16.626;2023-01-16T07:24:12;17.67;;;9.32;;
75680;SDS011;64294;49.176;16.626;2023-01-16T07:26:43;14.45;;;7.50;;
75680;SDS011;64294;49.176;16.626;2023-01-16T07:29:12;16.60;;;8.52;;
75680;SDS011;64294;49.176;16.626;2023-01-16T07:31:38;15.52;;;7.65;;
75680;SDS011;64294;49.176;16.626;2023-01-16T07:34:04;13.00;;;7.28;;
75680;SDS011;64294;49.176;16.626;2023-01-16T07:36:30;13.45;;;7.03;;
75680;SDS011;64294;49.176;16.626;2023-01-16T07:38:55;11.50;;;5.72;;
75680;SDS011;64294;49.176;16.626;2023-01-16T07:41:21;11.60;;;6.95;;
75680;SDS011;64294;49.176;16.626;2023-01-16T07:43:46;12.25;;;6.47;;
75680;SDS011;64294;49.176;16.626;2023-01-16T07:46:11;11.63;;;6.07;;
75680;SDS011;64294;49.176;16.626;2023-01-16T07:48:37;11.35;;;6.10;;
75680;SDS011;64294;49.176;16.626;2023-01-16T07:51:02;12.13;;;6.65;;
75680;SDS011;64294;49.176;16.626;2023-01-16T07:53:28;10.20;;;6.13;;
75680;SDS011;64294;49.176;16.626;2023-01-16T07:55:56;13.35;;;6.22;;
75680;SDS011;64294;49.176;16.626;2023-01-16T07:58:23;12.57;;;6.20;;
75680;SDS011;64294;49.176;16.626;2023-01-16T08:00:52;10.30;;;5.65;;
75680;SDS011;64294;49.176;16.626;2023-01-16T08:03:19;11.23;;;6.47;;
75680;SDS011;64294;49.176;16.626;2023-01-16T08:05:47;12.90;;;6.05;;
75680;SDS011;64294;49.176;16.626;2023-01-16T08:08:15;12.80;;;6.50;;
75680;SDS011;64294;49.176;16.626;2023-01-16T08:10:41;12.63;;;6.70;;
75680;SDS011;64294;49.176;16.626;2023-01-16T08:13:06;12.88;;;6.13;;
75680;SDS011;64294;49.176;16.626;2023-01-16T08:15:32;10.95;;;6.50;;
75680;SDS011;64294;49.176;16.626;2023-01-16T08:17:57;13.27;;;6.53;;
75680;SDS011;64294;49.176;16.626;2023-01-16T08:20:23;13.30;;;6.70;;
75680;SDS011;64294;49.176;16.626;2023-01-16T08:22:50;9.60;;;5.93;;
75680;SDS011;64294;49.176;16.626;2023-01-16T08:25:17;15.38;;;6.40;;
75680;SDS011;64294;49.176;16.626;2023-01-16T08:27:44;9.55;;;5.95;;
75680;SDS011;64294;49.176;16.626;2023-01-16T08:30:10;9.80;;;5.88;;
75680;SDS011;64294;49.176;16.626;2023-01-16T08:32:36;9.25;;;5.20;;
75680;SDS011;64294;49.176;16.626;2023-01-16T08:35:05;10.95;;;5.43;;
75680;SDS011;64294;49.176;16.626;2023-01-16T08:37:31;8.02;;;4.85;;
75680;SDS011;64294;49.176;16.626;2023-01-16T08:40:00;9.02;;;5.20;;
75680;SDS011;64294;49.176;16.626;2023-01-16T08:42:29;11.38;;;5.13;;
75680;SDS011;64294;49.176;16.626;2023-01-16T08:48:01;9.20;;;4.70;;
75680;SDS011;64294;49.176;16.626;2023-01-16T08:50:45;10.07;;;4.90;;
75680;SDS011;64294;49.176;16.626;2023-01-16T08:53:30;8.52;;;4.93;;
75680;SDS011;64294;49.176;16.626;2023-01-16T08:55:59;11.68;;;6.78;;
75680;SDS011;64294;49.176;16.626;2023-01-16T08:58:27;14.18;;;7.40;;
75680;SDS011;64294;49.176;16.626;2023-01-16T09:00:53;10.85;;;6.60;;
75680;SDS011;64294;49.176;16.626;2023-01-16T09:03:18;9.63;;;5.45;;
75680;SDS011;64294;49.176;16.626;2023-01-16T09:05:44;8.82;;;5.72;;
75680;SDS011;64294;49.176;16.626;2023-01-16T09:08:09;9.73;;;5.60;;
75680;SDS011;64294;49.176;16.626;2023-01-16T09:10:36;9.57;;;4.80;;
75680;SDS011;64294;49.176;16.626;2023-01-16T09:13:02;8.55;;;4.90;;
75680;SDS011;64294;49.176;16.626;2023-01-16T09:15:48;8.25;;;5.53;;
75680;SDS011;64294;49.176;16.626;2023-01-16T09:18:13;8.65;;;5.43;;
75680;SDS011;64294;49.176;16.626;2023-01-16T09:20:39;8.27;;;5.45;;
75680;SDS011;64294;49.176;16.626;2023-01-16T09:23:07;8.98;;;5.50;;
75680;SDS011;64294;49.176;16.626;2023-01-16T09:25:33;8.80;;;5.45;;
75680;SDS011;64294;49.176;16.626;2023-01-16T09:27:59;8.63;;;5.55;;
75680;SDS011;64294;49.176;16.626;2023-01-16T09:30:27;7.72;;;5.10;;
75680;SDS011;64294;49.176;16.626;2023-01-16T09:32:53;7.88;;;4.82;;
75680;SDS011;64294;49.176;16.626;2023-01-16T09:35:19;9.07;;;4.45;;
75680;SDS011;64294;49.176;16.626;2023-01-16T09:37:44;8.50;;;4.60;;
75680;SDS011;64294;49.176;16.626;2023-01-16T09:40:13;8.35;;;4.80;;
75680;SDS011;64294;49.176;16.626;2023-01-16T09:45:27;5.55;;;3.58;;
75680;SDS011;64294;49.176;16.626;2023-01-16T09:47:55;5.07;;;3.58;;
75680;SDS011;64294;49.176;16.626;2023-01-16T09:50:29;5.68;;;3.53;;
75680;SDS011;64294;49.176;16.626;2023-01-16T09:53:19;7.03;;;3.75;;
75680;SDS011;64294;49.176;16.626;2023-01-16T09:56:18;5.75;;;3.60;;
75680;SDS011;64294;49.176;16.626;2023-01-16T09:59:35;5.55;;;3.78;;
75680;SDS011;64294;49.176;16.626;2023-01-16T10:02:28;5.88;;;3.80;;
75680;SDS011;64294;49.176;16.626;2023-01-16T10:04:57;8.82;;;3.83;;
75680;SDS011;64294;49.176;16.626;2023-01-16T10:29:38;9.88;;;2.92;;
75680;SDS011;64294;49.176;16.626;2023-01-16T10:32:19;5.60;;;2.85;;
75680;SDS011;64294;49.176;16.626;2023-01-16T10:37:30;6.30;;;2.42;;
75680;SDS011;64294;49.176;16.626;2023-01-16T10:40:04;4.97;;;2.58;;
75680;SDS011;64294;49.176;16.626;2023-01-16T10:42:37;9.85;;;2.97;;
75680;SDS011;64294;49.176;16.626;2023-01-16T10:45:25;8.00;;;2.78;;
75680;SDS011;64294;49.176;16.626;2023-01-16T10:48:14;11.75;;;2.65;;
75680;SDS011;64294;49.176;16.626;2023-01-16T10:51:00;8.15;;;2.60;;
75680;SDS011;64294;49.176;16.626;2023-01-16T10:53:26;4.95;;;2.60;;
75680;SDS011;64294;49.176;16.626;2023-01-16T10:55:52;6.03;;;2.63;;
75680;SDS011;64294;49.176;16.626;2023-01-16T11:00:46;13.60;;;3.05;;
75680;SDS011;64294;49.176;16.626;2023-01-16T11:03:15;16.45;;;3.10;;
75680;SDS011;64294;49.176;16.626;2023-01-16T11:05:43;7.65;;;2.60;;
75680;SDS011;64294;49.176;16.626;2023-01-16T11:08:13;13.95;;;3.03;;
75680;SDS011;64294;49.176;16.626;2023-01-16T11:10:42;14.88;;;2.53;;
75680;SDS011;64294;49.176;16.626;2023-01-16T11:13:13;16.10;;;2.70;;
75680;SDS011;64294;49.176;16.626;2023-01-16T11:18:59;4.63;;;2.10;;
75680;SDS011;64294;49.176;16.626;2023-01-16T11:21:41;2.63;;;1.92;;
75680;SDS011;64294;49.176;16.626;2023-01-16T11:24:22;3.67;;;2.08;;
75680;SDS011;64294;49.176;16.626;2023-01-16T11:26:54;5.68;;;2.20;;
75680;SDS011;64294;49.176;16.626;2023-01-16T11:29:21;12.85;;;2.00;;
75680;SDS011;64294;49.176;16.626;2023-01-16T11:31:50;14.80;;;2.50;;
75680;SDS011;64294;49.176;16.626;2023-01-16T11:34:25;7.25;;;1.73;;
75680;SDS011;64294;49.176;16.626;2023-01-16T11:36:53;8.75;;;1.73;;
75680;SDS011;64294;49.176;16.626;2023-01-16T11:39:22;8.52;;;1.60;;
75680;SDS011;64294;49.176;16.626;2023-01-16T11:41:51;7.65;;;1.60;;
75680;SDS011;64294;49.176;16.626;2023-01-16T11:47:04;19.67;;;3.28;;
75680;SDS011;64294;49.176;16.626;2023-01-16T11:49:45;23.83;;;3.10;;
75680;SDS011;64294;49.176;16.626;2023-01-16T11:52:13;23.17;;;2.60;;
75680;SDS011;64294;49.176;16.626;2023-01-16T11:54:52;13.18;;;2.22;;
75680;SDS011;64294;49.176;16.626;2023-01-16T11:57:34;4.15;;;1.70;;
75680;SDS011;64294;49.176;16.626;2023-01-16T12:05:56;18.60;;;2.10;;
75680;SDS011;64294;49.176;16.626;2023-01-16T12:14:59;4.65;;;2.00;;
75680;SDS011;64294;49.176;16.626;2023-01-16T12:19:59;4.47;;;1.80;;
75680;SDS011;64294;49.176;16.626;2023-01-16T12:28:00;11.30;;;2.47;;
75680;SDS011;64294;49.176;16.626;2023-01-16T12:33:37;12.18;;;2.10;;
75680;SDS011;64294;49.176;16.626;2023-01-16T12:48:12;11.75;;;2.50;;
75680;SDS011;64294;49.176;16.626;2023-01-16T12:50:58;9.57;;;2.90;;
75680;SDS011;64294;49.176;16.626;2023-01-16T12:58:27;8.77;;;2.95;;
75680;SDS011;64294;49.176;16.626;2023-01-16T13:12:08;4.63;;;2.00;;
75680;SDS011;64294;49.176;16.626;2023-01-16T13:15:01;5.15;;;2.10;;
75680;SDS011;64294;49.176;16.626;2023-01-16T13:17:44;3.72;;;2.10;;
75680;SDS011;64294;49.176;16.626;2023-01-16T13:20:14;3.50;;;2.10;;
75680;SDS011;64294;49.176;16.626;2023-01-16T13:22:45;2.63;;;1.85;;
75680;SDS011;64294;49.176;16.626;2023-01-16T13:27:48;4.13;;;1.90;;
75680;SDS011;64294;49.176;16.626;2023-01-16T13:30:22;4.15;;;2.63;;
75680;SDS011;64294;49.176;16.626;2023-01-16T13:33:33;5.85;;;2.50;;
75680;SDS011;64294;49.176;16.626;2023-01-16T13:35:48;5.55;;;2.20;;
75680;SDS011;64294;49.176;16.626;2023-01-16T13:47:06;4.40;;;2.30;;
75680;SDS011;64294;49.176;16.626;2023-01-16T13:49:34;5.72;;;2.50;;
75680;SDS011;64294;49.176;16.626;2023-01-16T13:52:03;4.32;;;2.53;;
75680;SDS011;64294;49.176;16.626;2023-01-16T13:54:36;5.72;;;2.50;;
75680;SDS011;64294;49.176;16.626;2023-01-16T13:57:14;4.57;;;2.33;;
75680;SDS011;64294;49.176;16.626;2023-01-16T13:59:50;5.95;;;2.58;;
75680;SDS011;64294;49.176;16.626;2023-01-16T14:02:39;4.60;;;2.53;;
75680;SDS011;64294;49.176;16.626;2023-01-16T14:10:39;8.15;;;3.83;;
75680;SDS011;64294;49.176;16.626;2023-01-16T14:15:53;6.45;;;3.33;;
75680;SDS011;64294;49.176;16.626;2023-01-16T14:18:57;7.15;;;3.60;;
75680;SDS011;64294;49.176;16.626;2023-01-16T14:22:00;6.78;;;3.15;;
75680;SDS011;64294;49.176;16.626;2023-01-16T14:24:41;10.32;;;3.55;;
75680;SDS011;64294;49.176;16.626;2023-01-16T14:27:24;6.55;;;2.80;;
75680;SDS011;64294;49.176;16.626;2023-01-16T14:29:57;5.65;;;2.78;;
75680;SDS011;64294;49.176;16.626;2023-01-16T14:32:25;5.93;;;3.03;;
75680;SDS011;64294;49.176;16.626;2023-01-16T14:34:59;7.82;;;3.70;;
75680;SDS011;64294;49.176;16.626;2023-01-16T14:37:30;7.15;;;3.50;;
75680;SDS011;64294;49.176;16.626;2023-01-16T14:42:35;7.22;;;4.00;;
75680;SDS011;64294;49.176;16.626;2023-01-16T14:45:30;10.35;;;4.10;;
75680;SDS011;64294;49.176;16.626;2023-01-16T14:56:42;13.23;;;7.28;;
75680;SDS011;64294;49.176;16.626;2023-01-16T14:59:20;14.57;;;7.55;;
75680;SDS011;64294;49.176;16.626;2023-01-16T15:01:50;12.68;;;7.22;;
75680;SDS011;64294;49.176;16.626;2023-01-16T15:04:52;13.75;;;7.32;;
75680;SDS011;64294;49.176;16.626;2023-01-16T15:10:38;14.30;;;8.20;;
75680;SDS011;64294;49.176;16.626;2023-01-16T15:13:12;14.48;;;8.73;;
75680;SDS011;64294;49.176;16.626;2023-01-16T15:15:37;15.30;;;8.35;;
75680;SDS011;64294;49.176;16.626;2023-01-16T15:18:09;14.63;;;7.28;;
75680;SDS011;64294;49.176;16.626;2023-01-16T15:20:59;14.68;;;7.40;;
75680;SDS011;64294;49.176;16.626;2023-01-16T15:23:44;12.40;;;7.05;;
75680;SDS011;64294;49.176;16.626;2023-01-16T15:26:16;14.63;;;7.35;;
75680;SDS011;64294;49.176;16.626;2023-01-16T15:29:03;11.52;;;7.20;;
75680;SDS011;64294;49.176;16.626;2023-01-16T15:31:53;12.73;;;6.78;;
75680;SDS011;64294;49.176;16.626;2023-01-16T15:34:26;10.88;;;6.30;;
75680;SDS011;64294;49.176;16.626;2023-01-16T15:36:53;12.38;;;6.68;;
75680;SDS011;64294;49.176;16.626;2023-01-16T15:42:07;13.25;;;7.10;;
75680;SDS011;64294;49.176;16.626;2023-01-16T15:45:00;11.70;;;6.50;;
75680;SDS011;64294;49.176;16.626;2023-01-16T15:50:44;11.23;;;6.03;;
75680;SDS011;64294;49.176;16.626;2023-01-16T15:53:25;11.23;;;5.88;;
75680;SDS011;64294;49.176;16.626;2023-01-16T15:56:05;10.98;;;6.30;;
75680;SDS011;64294;49.176;16.626;2023-01-16T15:58:33;11.30;;;5.63;;
75680;SDS011;64294;49.176;16.626;2023-01-16T16:01:01;10.95;;;5.65;;
75680;SDS011;64294;49.176;16.626;2023-01-16T16:03:37;7.85;;;5.03;;
75680;SDS011;64294;49.176;16.626;2023-01-16T16:06:06;8.80;;;5.07;;
75680;SDS011;64294;49.176;16.626;2023-01-16T16:08:35;7.18;;;4.38;;
75680;SDS011;64294;49.176;16.626;2023-01-16T16:11:04;8.65;;;5.13;;
75680;SDS011;64294;49.176;16.626;2023-01-16T16:14:05;10.73;;;6.13;;
75680;SDS011;64294;49.176;16.626;2023-01-16T16:17:17;8.35;;;4.72;;
75680;SDS011;64294;49.176;16.626;2023-01-16T16:22:50;8.15;;;4.70;;
75680;SDS011;64294;49.176;16.626;2023-01-16T16:25:28;8.95;;;5.22;;
75680;SDS011;64294;49.176;16.626;2023-01-16T16:27:58;10.32;;;5.32;;
75680;SDS011;64294;49.176;16.626;2023-01-16T16:30:27;8.68;;;5.30;;
75680;SDS011;64294;49.176;16.626;2023-01-16T16:32:54;9.60;;;5.50;;
75680;SDS011;64294;49.176;16.626;2023-01-16T16:35:26;10.35;;;5.93;;
75680;SDS011;64294;49.176;16.626;2023-01-16T16:38:24;10.40;;;6.20;;
75680;SDS011;64294;49.176;16.626;2023-01-16T16:43:44;12.27;;;6.50;;
75680;SDS011;64294;49.176;16.626;2023-01-16T16:51:39;11.63;;;6.53;;
75680;SDS011;64294;49.176;16.626;2023-01-16T16:54:17;11.85;;;7.43;;
75680;SDS011;64294;49.176;16.626;2023-01-16T16:56:50;13.57;;;7.40;;
75680;SDS011;64294;49.176;16.626;2023-01-16T16:59:20;13.73;;;6.95;;
75680;SDS011;64294;49.176;16.626;2023-01-16T17:01:51;13.20;;;6.43;;
75680;SDS011;64294;49.176;16.626;2023-01-16T17:04:19;12.40;;;6.38;;
75680;SDS011;64294;49.176;16.626;2023-01-16T17:06:45;11.95;;;6.15;;
75680;SDS011;64294;49.176;16.626;2023-01-16T17:09:12;12.90;;;6.93;;
75680;SDS011;64294;49.176;16.626;2023-01-16T17:11:42;12.73;;;7.20;;
75680;SDS011;64294;49.176;16.626;2023-01-16T17:14:07;15.27;;;7.28;;
75680;SDS011;64294;49.176;16.626;2023-01-16T17:16:33;12.85;;;7.80;;
75680;SDS011;64294;49.176;16.626;2023-01-16T17:19:03;13.93;;;7.88;;
75680;SDS011;64294;49.176;16.626;2023-01-16T17:21:46;16.13;;;8.20;;
75680;SDS011;64294;49.176;16.626;2023-01-16T17:24:15;15.25;;;7.70;;
75680;SDS011;64294;49.176;16.626;2023-01-16T17:26:43;14.05;;;7.03;;
75680;SDS011;64294;49.176;16.626;2023-01-16T17:29:08;14.00;;;8.00;;
75680;SDS011;64294;49.176;16.626;2023-01-16T17:31:34;14.85;;;7.38;;
75680;SDS011;64294;49.176;16.626;2023-01-16T17:34:02;14.15;;;7.63;;
75680;SDS011;64294;49.176;16.626;2023-01-16T17:36:28;14.65;;;7.70;;
75680;SDS011;64294;49.176;16.626;2023-01-16T17:38:53;15.60;;;8.10;;
75680;SDS011;64294;49.176;16.626;2023-01-16T17:41:20;14.73;;;7.80;;
75680;SDS011;64294;49.176;16.626;2023-01-16T17:46:58;14.98;;;8.02;;
75680;SDS011;64294;49.176;16.626;2023-01-16T17:49:23;14.15;;;7.30;;
75680;SDS011;64294;49.176;16.626;2023-01-16T17:51:49;13.50;;;7.68;;
75680;SDS011;64294;49.176;16.626;2023-01-16T17:54:14;15.20;;;8.02;;
75680;SDS011;64294;49.176;16.626;2023-01-16T17:56:59;12.25;;;6.88;;
75680;SDS011;64294;49.176;16.626;2023-01-16T17:59:28;15.15;;;7.70;;
75680;SDS011;64294;49.176;16.626;2023-01-16T18:01:55;13.00;;;7.45;;
75680;SDS011;64294;49.176;16.626;2023-01-16T18:04:21;14.02;;;7.72;;